Airfield :
LOGIN :

Register | Disclaimer

   EN    FR    IT 

 










Legend :    VFR   Marginal VFR   IFR   Intensive IFR   Very Intensive IFR
Visi :
Ceiling :
>= 8 km
>= 3000ft
5 to 8 km
1000 to 3000 ft
1500m to 5 km
500 to 1000 ft
800 to 1500m
200 to 500 ft
< 800m
< 200 ft
Symbols :   Thunderstorms  Fog  Heavy snow  Heavy precipitations  Wind > 20 kt
SIGMETs :     Misc.  Thunderstorms  Icing  Turbulence  Mountain Waves  Volcanic Ashes






- Airport Elevation : 357 ft
- IATA code : TUF


LFOT - Tours

CURRENT METAR :
  • 300200Z AUTO 23004KT 9999 FEW027 OVC056 15/14 Q1017 TEMPO 0800 FG BKN003

EXPIRED METARs :
  • 300130Z AUTO 23004KT 9999 BKN032 OVC058 15/14 Q1017 TEMPO 0800 FG BKN003
  • 300100Z AUTO 21003KT 9999 SCT029 BKN041 OVC060 15/14 Q1017 TEMPO 0800 FG BKN003
  • 300030Z AUTO 22003KT 9999 BKN041 OVC058 15/14 Q1017 TEMPO 0800 FG BKN003
  • 300000Z AUTO 23003KT 190V260 9999 FEW049 OVC056 15/14 Q1017 TEMPO 0800 FG BKN003
  • 292330Z AUTO 24003KT 9999 FEW043 OVC058 16/14 Q1018 TEMPO 2500 BR BKN003

TAF TAF LFOT
Valid from the 30 at 00:00 until the 01 at 00:00 UTC


292300Z 3000/3024 22005KT 9999 BKN035
PROB40
TEMPO 3001/3009 2500 BR BKN007
PROB30
TEMPO 3001/3009 0800 FG BKN003
BECMG 3021/3024 -RA BKN020
PROB40
TEMPO 3022/3024 4000 RA BKN011 BKN020TCU



MET'MAP, your aeronautical weather chart ! - Copyright ORBIFLY December 2007 - Disclaimer

ORBIFLY MET'MAP TEAM :

Programming & Development : Alexandra Zaïnal
Concept & original design : Baudouin d'Aumeries
Assistance for programming : Marc-Olivier Méhu
Technical & hardware support : Manuel Goepfert

Contact : metmap@orbifly.com




SOURCES & CREDITS :

   NOAA